sensor_id;sensor_type;location;lat;lon;timestamp;P1;durP1;ratioP1;P2;durP2;ratioP2
22334;SDS011;11335;43.848;25.958;2023-06-14T00:02:40;9.48;;;7.65;;
22334;SDS011;11335;43.848;25.958;2023-06-14T00:05:27;8.82;;;7.78;;
22334;SDS011;11335;43.848;25.958;2023-06-14T00:08:14;11.45;;;7.35;;
22334;SDS011;11335;43.848;25.958;2023-06-14T00:11:00;9.88;;;7.80;;
22334;SDS011;11335;43.848;25.958;2023-06-14T00:13:46;10.63;;;8.10;;
22334;SDS011;11335;43.848;25.958;2023-06-14T00:16:32;8.52;;;7.05;;
22334;SDS011;11335;43.848;25.958;2023-06-14T00:19:20;10.50;;;8.00;;
22334;SDS011;11335;43.848;25.958;2023-06-14T00:22:06;15.00;;;8.30;;
22334;SDS011;11335;43.848;25.958;2023-06-14T00:24:52;10.32;;;8.40;;
22334;SDS011;11335;43.848;25.958;2023-06-14T00:27:37;8.77;;;7.97;;
22334;SDS011;11335;43.848;25.958;2023-06-14T00:30:23;9.02;;;7.80;;
22334;SDS011;11335;43.848;25.958;2023-06-14T00:33:09;10.45;;;8.15;;
22334;SDS011;11335;43.848;25.958;2023-06-14T00:35:55;11.32;;;7.55;;
22334;SDS011;11335;43.848;25.958;2023-06-14T00:38:41;11.00;;;8.05;;
22334;SDS011;11335;43.848;25.958;2023-06-14T00:41:26;8.48;;;7.47;;
22334;SDS011;11335;43.848;25.958;2023-06-14T00:44:13;11.07;;;7.93;;
22334;SDS011;11335;43.848;25.958;2023-06-14T00:47:01;8.38;;;7.47;;
22334;SDS011;11335;43.848;25.958;2023-06-14T00:49:48;11.98;;;7.90;;
22334;SDS011;11335;43.848;25.958;2023-06-14T00:52:36;10.45;;;8.13;;
22334;SDS011;11335;43.848;25.958;2023-06-14T00:55:22;9.85;;;8.30;;
22334;SDS011;11335;43.848;25.958;2023-06-14T00:58:08;9.30;;;7.63;;
22334;SDS011;11335;43.848;25.958;2023-06-14T01:00:54;10.52;;;8.45;;
22334;SDS011;11335;43.848;25.958;2023-06-14T01:03:41;9.82;;;7.63;;
22334;SDS011;11335;43.848;25.958;2023-06-14T01:09:36;9.05;;;7.70;;
22334;SDS011;11335;43.848;25.958;2023-06-14T01:15:27;12.63;;;8.68;;
22334;SDS011;11335;43.848;25.958;2023-06-14T01:18:15;8.77;;;7.53;;
22334;SDS011;11335;43.848;25.958;2023-06-14T01:21:04;10.68;;;7.60;;
22334;SDS011;11335;43.848;25.958;2023-06-14T01:23:51;9.65;;;7.90;;
22334;SDS011;11335;43.848;25.958;2023-06-14T01:26:40;8.70;;;7.78;;
22334;SDS011;11335;43.848;25.958;2023-06-14T01:29:31;10.18;;;8.20;;
22334;SDS011;11335;43.848;25.958;2023-06-14T01:32:18;9.48;;;8.13;;
22334;SDS011;11335;43.848;25.958;2023-06-14T01:35:04;9.43;;;8.32;;
22334;SDS011;11335;43.848;25.958;2023-06-14T01:37:50;12.73;;;8.02;;
22334;SDS011;11335;43.848;25.958;2023-06-14T01:40:37;9.00;;;8.10;;
22334;SDS011;11335;43.848;25.958;2023-06-14T01:43:25;9.25;;;8.00;;
22334;SDS011;11335;43.848;25.958;2023-06-14T01:46:12;8.75;;;7.85;;
22334;SDS011;11335;43.848;25.958;2023-06-14T01:49:00;9.55;;;7.75;;
22334;SDS011;11335;43.848;25.958;2023-06-14T01:51:46;10.05;;;7.53;;
22334;SDS011;11335;43.848;25.958;2023-06-14T01:54:31;10.93;;;8.45;;
22334;SDS011;11335;43.848;25.958;2023-06-14T01:57:17;9.85;;;8.13;;
22334;SDS011;11335;43.848;25.958;2023-06-14T02:00:03;9.07;;;7.82;;
22334;SDS011;11335;43.848;25.958;2023-06-14T02:02:53;10.30;;;8.00;;
22334;SDS011;11335;43.848;25.958;2023-06-14T02:05:39;10.95;;;8.13;;
22334;SDS011;11335;43.848;25.958;2023-06-14T02:08:25;9.40;;;8.10;;
22334;SDS011;11335;43.848;25.958;2023-06-14T02:11:10;10.48;;;8.07;;
22334;SDS011;11335;43.848;25.958;2023-06-14T02:13:56;9.82;;;7.82;;
22334;SDS011;11335;43.848;25.958;2023-06-14T02:16:45;9.50;;;7.72;;
22334;SDS011;11335;43.848;25.958;2023-06-14T02:19:34;12.75;;;9.02;;
22334;SDS011;11335;43.848;25.958;2023-06-14T02:22:20;11.63;;;8.57;;
22334;SDS011;11335;43.848;25.958;2023-06-14T02:25:07;10.63;;;8.18;;
22334;SDS011;11335;43.848;25.958;2023-06-14T02:27:54;11.35;;;8.75;;
22334;SDS011;11335;43.848;25.958;2023-06-14T02:30:40;13.55;;;9.82;;
22334;SDS011;11335;43.848;25.958;2023-06-14T02:33:26;12.35;;;9.68;;
22334;SDS011;11335;43.848;25.958;2023-06-14T02:36:11;12.10;;;9.13;;
22334;SDS011;11335;43.848;25.958;2023-06-14T02:38:57;12.05;;;9.35;;
22334;SDS011;11335;43.848;25.958;2023-06-14T02:41:43;11.13;;;9.07;;
22334;SDS011;11335;43.848;25.958;2023-06-14T02:44:29;13.90;;;9.52;;
22334;SDS011;11335;43.848;25.958;2023-06-14T02:47:15;12.77;;;9.52;;
22334;SDS011;11335;43.848;25.958;2023-06-14T02:50:00;12.73;;;9.88;;
22334;SDS011;11335;43.848;25.958;2023-06-14T02:52:46;12.15;;;9.75;;
22334;SDS011;11335;43.848;25.958;2023-06-14T02:55:32;11.43;;;8.90;;
22334;SDS011;11335;43.848;25.958;2023-06-14T02:58:18;11.18;;;9.23;;
22334;SDS011;11335;43.848;25.958;2023-06-14T03:01:07;13.60;;;9.60;;
22334;SDS011;11335;43.848;25.958;2023-06-14T03:03:53;13.43;;;10.13;;
22334;SDS011;11335;43.848;25.958;2023-06-14T03:06:38;12.82;;;9.80;;
22334;SDS011;11335;43.848;25.958;2023-06-14T03:09:24;11.40;;;9.70;;
22334;SDS011;11335;43.848;25.958;2023-06-14T03:12:10;11.93;;;9.70;;
22334;SDS011;11335;43.848;25.958;2023-06-14T03:14:56;11.40;;;9.30;;
22334;SDS011;11335;43.848;25.958;2023-06-14T03:17:42;11.35;;;9.32;;
22334;SDS011;11335;43.848;25.958;2023-06-14T03:20:30;11.82;;;9.65;;
22334;SDS011;11335;43.848;25.958;2023-06-14T03:23:18;13.73;;;10.00;;
22334;SDS011;11335;43.848;25.958;2023-06-14T03:26:04;10.48;;;9.15;;
22334;SDS011;11335;43.848;25.958;2023-06-14T03:28:50;11.80;;;9.68;;
22334;SDS011;11335;43.848;25.958;2023-06-14T03:31:36;12.45;;;9.70;;
22334;SDS011;11335;43.848;25.958;2023-06-14T03:34:25;12.65;;;9.65;;
22334;SDS011;11335;43.848;25.958;2023-06-14T03:37:11;9.75;;;8.73;;
22334;SDS011;11335;43.848;25.958;2023-06-14T03:39:57;10.70;;;8.82;;
22334;SDS011;11335;43.848;25.958;2023-06-14T03:42:43;12.35;;;8.70;;
22334;SDS011;11335;43.848;25.958;2023-06-14T03:45:29;11.77;;;8.98;;
22334;SDS011;11335;43.848;25.958;2023-06-14T03:48:15;14.95;;;9.07;;
22334;SDS011;11335;43.848;25.958;2023-06-14T03:51:01;12.27;;;8.90;;
22334;SDS011;11335;43.848;25.958;2023-06-14T03:53:47;11.73;;;9.38;;
22334;SDS011;11335;43.848;25.958;2023-06-14T03:56:33;10.20;;;8.93;;
22334;SDS011;11335;43.848;25.958;2023-06-14T03:59:19;12.25;;;9.20;;
22334;SDS011;11335;43.848;25.958;2023-06-14T04:02:05;11.27;;;8.65;;
22334;SDS011;11335;43.848;25.958;2023-06-14T04:04:51;11.68;;;8.55;;
22334;SDS011;11335;43.848;25.958;2023-06-14T04:07:39;11.02;;;9.23;;
22334;SDS011;11335;43.848;25.958;2023-06-14T04:10:25;10.88;;;8.68;;
22334;SDS011;11335;43.848;25.958;2023-06-14T04:13:11;12.73;;;8.60;;
22334;SDS011;11335;43.848;25.958;2023-06-14T04:15:58;10.23;;;8.57;;
22334;SDS011;11335;43.848;25.958;2023-06-14T04:18:44;13.07;;;8.55;;
22334;SDS011;11335;43.848;25.958;2023-06-14T04:21:30;11.93;;;8.50;;
22334;SDS011;11335;43.848;25.958;2023-06-14T04:24:16;13.65;;;9.10;;
22334;SDS011;11335;43.848;25.958;2023-06-14T04:27:02;13.82;;;9.43;;
22334;SDS011;11335;43.848;25.958;2023-06-14T04:29:48;13.25;;;8.68;;
22334;SDS011;11335;43.848;25.958;2023-06-14T04:32:34;14.68;;;8.45;;
22334;SDS011;11335;43.848;25.958;2023-06-14T04:35:24;13.02;;;9.40;;
22334;SDS011;11335;43.848;25.958;2023-06-14T04:38:10;14.38;;;8.98;;
22334;SDS011;11335;43.848;25.958;2023-06-14T04:40:56;12.07;;;8.23;;
22334;SDS011;11335;43.848;25.958;2023-06-14T04:43:42;10.52;;;8.05;;
22334;SDS011;11335;43.848;25.958;2023-06-14T04:46:28;11.38;;;8.20;;
22334;SDS011;11335;43.848;25.958;2023-06-14T04:49:14;10.25;;;7.63;;
22334;SDS011;11335;43.848;25.958;2023-06-14T04:52:03;7.97;;;6.80;;
22334;SDS011;11335;43.848;25.958;2023-06-14T04:54:50;7.30;;;6.50;;
22334;SDS011;11335;43.848;25.958;2023-06-14T04:57:38;11.95;;;6.28;;
22334;SDS011;11335;43.848;25.958;2023-06-14T05:00:23;7.85;;;6.50;;
22334;SDS011;11335;43.848;25.958;2023-06-14T05:03:09;8.30;;;6.38;;
22334;SDS011;11335;43.848;25.958;2023-06-14T05:05:58;7.53;;;6.25;;
22334;SDS011;11335;43.848;25.958;2023-06-14T05:08:45;15.10;;;6.43;;
22334;SDS011;11335;43.848;25.958;2023-06-14T05:11:31;8.45;;;6.28;;
22334;SDS011;11335;43.848;25.958;2023-06-14T05:14:17;11.15;;;6.40;;
22334;SDS011;11335;43.848;25.958;2023-06-14T05:17:03;9.45;;;6.10;;
22334;SDS011;11335;43.848;25.958;2023-06-14T05:19:49;8.43;;;6.43;;
22334;SDS011;11335;43.848;25.958;2023-06-14T05:22:36;19.35;;;6.25;;
22334;SDS011;11335;43.848;25.958;2023-06-14T05:25:21;11.82;;;6.18;;
22334;SDS011;11335;43.848;25.958;2023-06-14T05:28:08;8.38;;;5.85;;
22334;SDS011;11335;43.848;25.958;2023-06-14T05:30:53;12.25;;;5.95;;
22334;SDS011;11335;43.848;25.958;2023-06-14T05:33:39;12.13;;;5.70;;
22334;SDS011;11335;43.848;25.958;2023-06-14T05:36:25;12.73;;;6.40;;
22334;SDS011;11335;43.848;25.958;2023-06-14T05:39:13;8.40;;;5.90;;
22334;SDS011;11335;43.848;25.958;2023-06-14T05:41:59;10.35;;;6.20;;
22334;SDS011;11335;43.848;25.958;2023-06-14T05:44:44;9.60;;;6.05;;
22334;SDS011;11335;43.848;25.958;2023-06-14T05:47:30;14.00;;;7.18;;
22334;SDS011;11335;43.848;25.958;2023-06-14T05:50:16;8.93;;;5.93;;
22334;SDS011;11335;43.848;25.958;2023-06-14T05:53:02;8.52;;;6.32;;
22334;SDS011;11335;43.848;25.958;2023-06-14T05:55:47;11.90;;;6.88;;
22334;SDS011;11335;43.848;25.958;2023-06-14T05:58:34;17.60;;;6.40;;
22334;SDS011;11335;43.848;25.958;2023-06-14T06:01:20;8.88;;;6.40;;
22334;SDS011;11335;43.848;25.958;2023-06-14T06:04:05;7.60;;;6.50;;
22334;SDS011;11335;43.848;25.958;2023-06-14T06:06:51;8.68;;;6.55;;
22334;SDS011;11335;43.848;25.958;2023-06-14T06:09:37;11.63;;;7.00;;
22334;SDS011;11335;43.848;25.958;2023-06-14T06:12:23;11.75;;;7.40;;
22334;SDS011;11335;43.848;25.958;2023-06-14T06:15:08;8.30;;;7.03;;
22334;SDS011;11335;43.848;25.958;2023-06-14T06:17:57;8.93;;;6.32;;
22334;SDS011;11335;43.848;25.958;2023-06-14T06:20:43;13.48;;;6.82;;
22334;SDS011;11335;43.848;25.958;2023-06-14T06:23:29;17.88;;;8.40;;
22334;SDS011;11335;43.848;25.958;2023-06-14T06:26:15;11.40;;;7.30;;
22334;SDS011;11335;43.848;25.958;2023-06-14T06:29:00;33.58;;;8.68;;
22334;SDS011;11335;43.848;25.958;2023-06-14T06:31:46;8.55;;;7.00;;
22334;SDS011;11335;43.848;25.958;2023-06-14T06:34:32;28.35;;;8.35;;
22334;SDS011;11335;43.848;25.958;2023-06-14T06:37:18;27.17;;;11.45;;
22334;SDS011;11335;43.848;25.958;2023-06-14T06:40:05;10.98;;;6.72;;
22334;SDS011;11335;43.848;25.958;2023-06-14T06:42:51;12.00;;;6.63;;
22334;SDS011;11335;43.848;25.958;2023-06-14T06:45:36;24.05;;;7.25;;
22334;SDS011;11335;43.848;25.958;2023-06-14T06:48:22;13.43;;;6.03;;
22334;SDS011;11335;43.848;25.958;2023-06-14T06:51:08;15.73;;;6.80;;
22334;SDS011;11335;43.848;25.958;2023-06-14T06:53:54;11.65;;;6.25;;
22334;SDS011;11335;43.848;25.958;2023-06-14T06:56:40;10.10;;;6.75;;
22334;SDS011;11335;43.848;25.958;2023-06-14T06:59:26;20.55;;;8.25;;
22334;SDS011;11335;43.848;25.958;2023-06-14T07:02:11;8.90;;;6.32;;
22334;SDS011;11335;43.848;25.958;2023-06-14T07:04:57;14.95;;;6.90;;
22334;SDS011;11335;43.848;25.958;2023-06-14T07:07:43;9.23;;;5.97;;
22334;SDS011;11335;43.848;25.958;2023-06-14T07:10:29;12.68;;;6.00;;
22334;SDS011;11335;43.848;25.958;2023-06-14T07:13:15;14.98;;;6.00;;
22334;SDS011;11335;43.848;25.958;2023-06-14T07:16:01;11.25;;;6.13;;
22334;SDS011;11335;43.848;25.958;2023-06-14T07:18:48;11.00;;;6.40;;
22334;SDS011;11335;43.848;25.958;2023-06-14T07:21:34;11.57;;;6.55;;
22334;SDS011;11335;43.848;25.958;2023-06-14T07:24:19;8.85;;;5.60;;
22334;SDS011;11335;43.848;25.958;2023-06-14T07:27:06;10.57;;;6.93;;
22334;SDS011;11335;43.848;25.958;2023-06-14T07:29:52;7.13;;;5.18;;
22334;SDS011;11335;43.848;25.958;2023-06-14T07:32:38;7.18;;;5.28;;
22334;SDS011;11335;43.848;25.958;2023-06-14T07:35:25;6.38;;;5.15;;
22334;SDS011;11335;43.848;25.958;2023-06-14T07:38:10;5.45;;;4.93;;
22334;SDS011;11335;43.848;25.958;2023-06-14T07:40:56;9.15;;;5.25;;
22334;SDS011;11335;43.848;25.958;2023-06-14T07:43:42;7.47;;;5.32;;
22334;SDS011;11335;43.848;25.958;2023-06-14T07:46:28;8.20;;;5.43;;
22334;SDS011;11335;43.848;25.958;2023-06-14T07:49:13;10.32;;;5.13;;
22334;SDS011;11335;43.848;25.958;2023-06-14T07:51:59;6.38;;;5.10;;
22334;SDS011;11335;43.848;25.958;2023-06-14T07:54:45;6.88;;;5.28;;
22334;SDS011;11335;43.848;25.958;2023-06-14T07:57:31;8.77;;;5.60;;
22334;SDS011;11335;43.848;25.958;2023-06-14T08:00:17;12.68;;;5.50;;
22334;SDS011;11335;43.848;25.958;2023-06-14T08:03:03;9.30;;;5.20;;
22334;SDS011;11335;43.848;25.958;2023-06-14T08:05:49;12.85;;;5.78;;
22334;SDS011;11335;43.848;25.958;2023-06-14T08:08:35;8.00;;;6.30;;
22334;SDS011;11335;43.848;25.958;2023-06-14T08:11:21;13.90;;;6.30;;
22334;SDS011;11335;43.848;25.958;2023-06-14T08:14:09;9.35;;;5.93;;
22334;SDS011;11335;43.848;25.958;2023-06-14T08:16:55;8.95;;;5.93;;
22334;SDS011;11335;43.848;25.958;2023-06-14T08:19:40;15.32;;;7.00;;
22334;SDS011;11335;43.848;25.958;2023-06-14T08:22:26;7.78;;;6.20;;
22334;SDS011;11335;43.848;25.958;2023-06-14T08:25:14;10.98;;;5.70;;
22334;SDS011;11335;43.848;25.958;2023-06-14T08:28:00;7.35;;;5.40;;
22334;SDS011;11335;43.848;25.958;2023-06-14T08:30:46;8.00;;;5.65;;
22334;SDS011;11335;43.848;25.958;2023-06-14T08:33:31;9.13;;;6.00;;
22334;SDS011;11335;43.848;25.958;2023-06-14T08:36:18;10.60;;;6.13;;
22334;SDS011;11335;43.848;25.958;2023-06-14T08:39:04;7.53;;;5.25;;
22334;SDS011;11335;43.848;25.958;2023-06-14T08:41:50;8.07;;;5.32;;
22334;SDS011;11335;43.848;25.958;2023-06-14T08:44:38;6.63;;;5.10;;
22334;SDS011;11335;43.848;25.958;2023-06-14T08:47:24;9.25;;;5.78;;
22334;SDS011;11335;43.848;25.958;2023-06-14T08:50:12;10.77;;;5.80;;
22334;SDS011;11335;43.848;25.958;2023-06-14T08:53:01;7.05;;;4.90;;
22334;SDS011;11335;43.848;25.958;2023-06-14T08:55:48;8.82;;;5.47;;
22334;SDS011;11335;43.848;25.958;2023-06-14T08:58:33;7.57;;;4.88;;
22334;SDS011;11335;43.848;25.958;2023-06-14T09:01:20;8.45;;;5.47;;
22334;SDS011;11335;43.848;25.958;2023-06-14T09:04:07;8.02;;;5.13;;
22334;SDS011;11335;43.848;25.958;2023-06-14T09:06:53;9.60;;;5.13;;
22334;SDS011;11335;43.848;25.958;2023-06-14T09:09:40;7.43;;;5.15;;
22334;SDS011;11335;43.848;25.958;2023-06-14T09:12:27;9.25;;;4.90;;
22334;SDS011;11335;43.848;25.958;2023-06-14T09:15:13;8.55;;;4.50;;
22334;SDS011;11335;43.848;25.958;2023-06-14T09:18:03;7.55;;;4.70;;
22334;SDS011;11335;43.848;25.958;2023-06-14T09:20:49;6.93;;;4.15;;
22334;SDS011;11335;43.848;25.958;2023-06-14T09:23:41;6.03;;;3.65;;
22334;SDS011;11335;43.848;25.958;2023-06-14T09:26:31;7.68;;;4.50;;
22334;SDS011;11335;43.848;25.958;2023-06-14T09:29:17;5.53;;;4.13;;
22334;SDS011;11335;43.848;25.958;2023-06-14T09:32:03;7.03;;;3.65;;
22334;SDS011;11335;43.848;25.958;2023-06-14T09:34:50;5.63;;;3.90;;
22334;SDS011;11335;43.848;25.958;2023-06-14T09:37:37;4.60;;;3.28;;
22334;SDS011;11335;43.848;25.958;2023-06-14T09:40:26;5.40;;;2.90;;
22334;SDS011;11335;43.848;25.958;2023-06-14T09:43:11;6.05;;;3.63;;
22334;SDS011;11335;43.848;25.958;2023-06-14T09:45:57;5.72;;;3.50;;
22334;SDS011;11335;43.848;25.958;2023-06-14T09:48:43;6.55;;;3.47;;
22334;SDS011;11335;43.848;25.958;2023-06-14T09:51:30;5.45;;;3.40;;
22334;SDS011;11335;43.848;25.958;2023-06-14T09:54:16;7.13;;;3.72;;
22334;SDS011;11335;43.848;25.958;2023-06-14T09:57:05;5.60;;;3.78;;
22334;SDS011;11335;43.848;25.958;2023-06-14T09:59:55;3.88;;;3.42;;
22334;SDS011;11335;43.848;25.958;2023-06-14T10:02:46;9.35;;;3.97;;
22334;SDS011;11335;43.848;25.958;2023-06-14T10:05:43;7.30;;;3.80;;
22334;SDS011;11335;43.848;25.958;2023-06-14T10:08:31;5.50;;;3.58;;
22334;SDS011;11335;43.848;25.958;2023-06-14T10:11:19;4.25;;;3.83;;
22334;SDS011;11335;43.848;25.958;2023-06-14T10:14:05;11.35;;;4.20;;
22334;SDS011;11335;43.848;25.958;2023-06-14T10:17:09;4.10;;;3.70;;
22334;SDS011;11335;43.848;25.958;2023-06-14T10:20:19;9.52;;;4.28;;
22334;SDS011;11335;43.848;25.958;2023-06-14T10:23:17;7.20;;;4.00;;
22334;SDS011;11335;43.848;25.958;2023-06-14T10:26:05;5.85;;;3.42;;
22334;SDS011;11335;43.848;25.958;2023-06-14T10:28:58;4.25;;;3.85;;
22334;SDS011;11335;43.848;25.958;2023-06-14T10:31:55;5.88;;;3.85;;
22334;SDS011;11335;43.848;25.958;2023-06-14T10:34:42;9.15;;;4.13;;
22334;SDS011;11335;43.848;25.958;2023-06-14T10:37:28;5.80;;;3.75;;
22334;SDS011;11335;43.848;25.958;2023-06-14T10:40:29;11.73;;;4.00;;
22334;SDS011;11335;43.848;25.958;2023-06-14T10:43:22;7.82;;;4.07;;
22334;SDS011;11335;43.848;25.958;2023-06-14T10:49:02;5.50;;;3.90;;
22334;SDS011;11335;43.848;25.958;2023-06-14T10:51:49;4.80;;;4.03;;
22334;SDS011;11335;43.848;25.958;2023-06-14T10:54:37;5.70;;;3.70;;
22334;SDS011;11335;43.848;25.958;2023-06-14T10:57:23;7.25;;;4.28;;
22334;SDS011;11335;43.848;25.958;2023-06-14T11:00:09;4.75;;;3.97;;
22334;SDS011;11335;43.848;25.958;2023-06-14T11:06:14;6.20;;;4.30;;
22334;SDS011;11335;43.848;25.958;2023-06-14T11:12:24;5.95;;;4.38;;
22334;SDS011;11335;43.848;25.958;2023-06-14T11:15:13;10.85;;;4.60;;
22334;SDS011;11335;43.848;25.958;2023-06-14T11:18:00;8.93;;;4.13;;
22334;SDS011;11335;43.848;25.958;2023-06-14T11:20:48;7.25;;;4.05;;
22334;SDS011;11335;43.848;25.958;2023-06-14T11:23:34;5.50;;;4.18;;
22334;SDS011;11335;43.848;25.958;2023-06-14T11:26:30;4.40;;;4.00;;
22334;SDS011;11335;43.848;25.958;2023-06-14T11:29:19;7.53;;;4.00;;
22334;SDS011;11335;43.848;25.958;2023-06-14T11:32:08;6.70;;;4.20;;
22334;SDS011;11335;43.848;25.958;2023-06-14T11:34:57;10.30;;;5.15;;
22334;SDS011;11335;43.848;25.958;2023-06-14T11:37:44;4.95;;;4.40;;
22334;SDS011;11335;43.848;25.958;2023-06-14T11:40:30;4.68;;;4.15;;
22334;SDS011;11335;43.848;25.958;2023-06-14T11:43:16;6.70;;;3.97;;
22334;SDS011;11335;43.848;25.958;2023-06-14T11:46:02;7.63;;;4.70;;
22334;SDS011;11335;43.848;25.958;2023-06-14T11:48:48;5.32;;;4.50;;
22334;SDS011;11335;43.848;25.958;2023-06-14T11:51:34;4.97;;;4.30;;
22334;SDS011;11335;43.848;25.958;2023-06-14T11:54:20;7.22;;;4.40;;
22334;SDS011;11335;43.848;25.958;2023-06-14T11:57:06;6.47;;;4.13;;
22334;SDS011;11335;43.848;25.958;2023-06-14T11:59:54;6.72;;;4.18;;
22334;SDS011;11335;43.848;25.958;2023-06-14T12:02:40;5.80;;;4.15;;
22334;SDS011;11335;43.848;25.958;2023-06-14T12:05:27;6.05;;;4.05;;
22334;SDS011;11335;43.848;25.958;2023-06-14T12:08:13;6.50;;;4.10;;
22334;SDS011;11335;43.848;25.958;2023-06-14T12:11:02;6.15;;;4.25;;
22334;SDS011;11335;43.848;25.958;2023-06-14T12:13:48;4.63;;;4.05;;
22334;SDS011;11335;43.848;25.958;2023-06-14T12:16:35;5.10;;;4.25;;
22334;SDS011;11335;43.848;25.958;2023-06-14T12:19:25;7.13;;;4.43;;
22334;SDS011;11335;43.848;25.958;2023-06-14T12:22:14;8.32;;;4.47;;
22334;SDS011;11335;43.848;25.958;2023-06-14T12:25:00;8.07;;;4.43;;
22334;SDS011;11335;43.848;25.958;2023-06-14T12:27:46;8.70;;;4.15;;
22334;SDS011;11335;43.848;25.958;2023-06-14T12:30:33;7.25;;;4.45;;
22334;SDS011;11335;43.848;25.958;2023-06-14T12:33:19;5.55;;;3.92;;
22334;SDS011;11335;43.848;25.958;2023-06-14T12:36:09;5.60;;;4.00;;
22334;SDS011;11335;43.848;25.958;2023-06-14T12:38:56;6.80;;;3.90;;
22334;SDS011;11335;43.848;25.958;2023-06-14T12:41:42;5.43;;;4.00;;
22334;SDS011;11335;43.848;25.958;2023-06-14T12:44:27;6.43;;;4.60;;
22334;SDS011;11335;43.848;25.958;2023-06-14T12:47:13;6.80;;;3.83;;
22334;SDS011;11335;43.848;25.958;2023-06-14T12:49:59;6.75;;;4.20;;
22334;SDS011;11335;43.848;25.958;2023-06-14T12:52:45;6.65;;;4.45;;
22334;SDS011;11335;43.848;25.958;2023-06-14T12:55:31;8.65;;;4.63;;
22334;SDS011;11335;43.848;25.958;2023-06-14T12:58:18;4.85;;;4.10;;
22334;SDS011;11335;43.848;25.958;2023-06-14T13:01:05;8.00;;;5.53;;
22334;SDS011;11335;43.848;25.958;2023-06-14T13:03:50;5.18;;;4.45;;
22334;SDS011;11335;43.848;25.958;2023-06-14T13:06:39;7.45;;;4.32;;
22334;SDS011;11335;43.848;25.958;2023-06-14T13:09:24;14.05;;;4.25;;
22334;SDS011;11335;43.848;25.958;2023-06-14T13:12:10;7.30;;;3.90;;
22334;SDS011;11335;43.848;25.958;2023-06-14T13:14:57;12.00;;;4.30;;
22334;SDS011;11335;43.848;25.958;2023-06-14T13:17:43;5.65;;;4.18;;
22334;SDS011;11335;43.848;25.958;2023-06-14T13:20:33;9.25;;;4.47;;
22334;SDS011;11335;43.848;25.958;2023-06-14T13:23:19;11.10;;;4.53;;
22334;SDS011;11335;43.848;25.958;2023-06-14T13:26:05;7.85;;;4.80;;
22334;SDS011;11335;43.848;25.958;2023-06-14T13:28:51;5.07;;;4.18;;
22334;SDS011;11335;43.848;25.958;2023-06-14T13:31:37;6.13;;;4.00;;
22334;SDS011;11335;43.848;25.958;2023-06-14T13:34:23;5.22;;;3.85;;
22334;SDS011;11335;43.848;25.958;2023-06-14T13:37:08;7.03;;;4.22;;
22334;SDS011;11335;43.848;25.958;2023-06-14T13:39:54;4.82;;;4.07;;
22334;SDS011;11335;43.848;25.958;2023-06-14T13:42:40;13.68;;;5.18;;
22334;SDS011;11335;43.848;25.958;2023-06-14T13:45:26;11.93;;;4.53;;
22334;SDS011;11335;43.848;25.958;2023-06-14T13:48:12;7.13;;;4.30;;
22334;SDS011;11335;43.848;25.958;2023-06-14T13:50:59;4.88;;;3.92;;
22334;SDS011;11335;43.848;25.958;2023-06-14T13:53:49;7.20;;;4.10;;
22334;SDS011;11335;43.848;25.958;2023-06-14T13:56:35;7.22;;;4.18;;
22334;SDS011;11335;43.848;25.958;2023-06-14T13:59:21;6.25;;;4.10;;
22334;SDS011;11335;43.848;25.958;2023-06-14T14:02:07;5.20;;;4.28;;
22334;SDS011;11335;43.848;25.958;2023-06-14T14:04:53;3.80;;;3.40;;
22334;SDS011;11335;43.848;25.958;2023-06-14T14:07:39;5.07;;;3.92;;
22334;SDS011;11335;43.848;25.958;2023-06-14T14:10:24;4.93;;;3.88;;
22334;SDS011;11335;43.848;25.958;2023-06-14T14:13:10;5.07;;;3.70;;
22334;SDS011;11335;43.848;25.958;2023-06-14T14:15:57;5.32;;;4.18;;
22334;SDS011;11335;43.848;25.958;2023-06-14T14:18:45;6.38;;;3.80;;
22334;SDS011;11335;43.848;25.958;2023-06-14T14:21:31;5.70;;;3.72;;
22334;SDS011;11335;43.848;25.958;2023-06-14T14:24:17;4.13;;;3.72;;
22334;SDS011;11335;43.848;25.958;2023-06-14T14:27:03;6.22;;;3.80;;
22334;SDS011;11335;43.848;25.958;2023-06-14T14:29:49;8.52;;;3.78;;
22334;SDS011;11335;43.848;25.958;2023-06-14T14:32:34;8.02;;;3.90;;
22334;SDS011;11335;43.848;25.958;2023-06-14T14:35:20;6.70;;;3.75;;
22334;SDS011;11335;43.848;25.958;2023-06-14T14:38:08;5.38;;;3.95;;
22334;SDS011;11335;43.848;25.958;2023-06-14T14:40:54;7.30;;;3.92;;
22334;SDS011;11335;43.848;25.958;2023-06-14T14:43:40;5.80;;;4.00;;
22334;SDS011;11335;43.848;25.958;2023-06-14T14:46:26;8.70;;;3.67;;
22334;SDS011;11335;43.848;25.958;2023-06-14T14:49:13;6.22;;;4.10;;
22334;SDS011;11335;43.848;25.958;2023-06-14T14:51:59;10.85;;;4.43;;
22334;SDS011;11335;43.848;25.958;2023-06-14T14:54:45;5.85;;;4.32;;
22334;SDS011;11335;43.848;25.958;2023-06-14T14:57:30;7.78;;;4.32;;
22334;SDS011;11335;43.848;25.958;2023-06-14T15:00:17;5.45;;;4.28;;
22334;SDS011;11335;43.848;25.958;2023-06-14T15:03:03;6.88;;;4.07;;
22334;SDS011;11335;43.848;25.958;2023-06-14T15:05:48;11.10;;;4.15;;
22334;SDS011;11335;43.848;25.958;2023-06-14T15:08:35;7.78;;;3.97;;
22334;SDS011;11335;43.848;25.958;2023-06-14T15:11:21;9.25;;;4.10;;
22334;SDS011;11335;43.848;25.958;2023-06-14T15:14:07;10.27;;;4.60;;
22334;SDS011;11335;43.848;25.958;2023-06-14T15:16:53;7.10;;;3.85;;
22334;SDS011;11335;43.848;25.958;2023-06-14T15:19:39;5.55;;;3.70;;
22334;SDS011;11335;43.848;25.958;2023-06-14T15:22:24;7.65;;;3.58;;
22334;SDS011;11335;43.848;25.958;2023-06-14T15:25:10;7.45;;;3.92;;
22334;SDS011;11335;43.848;25.958;2023-06-14T15:27:56;6.97;;;3.78;;
22334;SDS011;11335;43.848;25.958;2023-06-14T15:30:42;7.85;;;4.68;;
22334;SDS011;11335;43.848;25.958;2023-06-14T15:33:27;6.50;;;4.10;;
22334;SDS011;11335;43.848;25.958;2023-06-14T15:36:13;11.73;;;4.13;;
22334;SDS011;11335;43.848;25.958;2023-06-14T15:38:59;8.70;;;4.40;;
22334;SDS011;11335;43.848;25.958;2023-06-14T15:41:48;9.68;;;4.50;;
22334;SDS011;11335;43.848;25.958;2023-06-14T15:44:33;6.53;;;4.00;;
22334;SDS011;11335;43.848;25.958;2023-06-14T15:47:19;6.10;;;4.10;;
22334;SDS011;11335;43.848;25.958;2023-06-14T15:50:05;20.40;;;5.15;;
22334;SDS011;11335;43.848;25.958;2023-06-14T15:52:53;9.68;;;4.28;;
22334;SDS011;11335;43.848;25.958;2023-06-14T15:55:38;8.30;;;4.47;;
22334;SDS011;11335;43.848;25.958;2023-06-14T15:58:24;5.47;;;3.75;;
22334;SDS011;11335;43.848;25.958;2023-06-14T16:01:10;6.57;;;3.88;;
22334;SDS011;11335;43.848;25.958;2023-06-14T16:03:56;12.13;;;4.38;;
22334;SDS011;11335;43.848;25.958;2023-06-14T16:06:41;6.70;;;4.63;;
22334;SDS011;11335;43.848;25.958;2023-06-14T16:09:27;6.45;;;4.68;;
22334;SDS011;11335;43.848;25.958;2023-06-14T16:12:13;7.22;;;4.65;;
22334;SDS011;11335;43.848;25.958;2023-06-14T16:14:59;4.85;;;4.03;;
22334;SDS011;11335;43.848;25.958;2023-06-14T16:17:44;5.90;;;4.50;;
22334;SDS011;11335;43.848;25.958;2023-06-14T16:20:30;6.72;;;4.18;;
22334;SDS011;11335;43.848;25.958;2023-06-14T16:23:16;6.45;;;4.30;;
22334;SDS011;11335;43.848;25.958;2023-06-14T16:26:02;9.90;;;4.72;;
22334;SDS011;11335;43.848;25.958;2023-06-14T16:28:47;6.65;;;4.32;;
22334;SDS011;11335;43.848;25.958;2023-06-14T16:31:33;7.22;;;4.28;;
22334;SDS011;11335;43.848;25.958;2023-06-14T16:34:19;14.07;;;4.75;;
22334;SDS011;11335;43.848;25.958;2023-06-14T16:37:05;8.20;;;4.40;;
22334;SDS011;11335;43.848;25.958;2023-06-14T16:39:50;5.82;;;4.47;;